19:56
Airports
History
Links
Donate
Help keep this website running!
PayPal
Bitcoin
Information on this page is community maintained and may be outdated or inaccurate and is intended for reference only or PC simulator navigating!
Always use approved charts for navigating.
SC07
Alans
Alans (SC07)
St Matthews, South Carolina, United States (29135)
(U)
Lat/Lng:33° 40' 33" N / 80° 56' 59" W
33.675833 / -80.949722
Elevation:369'ft 112mMSL
ID / ICAO:SC07
Runways:1
Longest:(13-31) 788.6m 2,587ft Asphalt
Distance To
Airport ID:
Nearby VORs <50NM
Nearby NDBs
Nearby WeatherUpdated 03-24-17 19:53 GMT
Nearby weather at KOGB, Orangeburg Muni located 16.0 nautical miles from SC07
Altimeter: 30.38
Visibility: 10.0 statute miles
Wind: 12 knots (180°)
Temp: 23°c 73°f
Humidity: 38.2%

METAR: KOGB 241953Z AUTO 18012KT 10SM SCT060 23/08 A3038 RMK AO2 SLP287 T02330078

(Powered by phpweather)
Runway 13 / 31
Dimensions:788.6 x 38.1m 2587' x 125'ft
Surface:Asphalt
Edge Lights:Low intensity
Runway 13 [A]Runway 31 [B]
Heading:126°TH 306°TH
Lat:
Lng:
33° 40' 40.55"N
80° 57' 11.48"W
33° 40' 25.45"N
80° 56' 46.52"W
Google Map
Nearby Airports
(R) North Af Aux 8.8 NM
KXNO WSW 238°
4 Lexington County 11.3 NM
7J1 NW 312°
4 St Matthews 14.8 NM
6J3 E 86°
(U) Orangeburg Muni 16.0 NM
KOGB (WX) SSE 161°
(R) Darden 17.6 NM
SC13 NW 310°
(U) Lexington County At Pelion 18.9 NM
6J0 WNW 295°
(R) Mc Entire Jngb 19.0 NM
KMMT (WX) NNE 26°
VFR Chart
Flight Planning at SkyVector.com